Time;durP1;ratioP1;P1;durP2;ratioP2;P2;SDS_P1;SDS_P2;PMS_P1;PMS_P2;Temp;Humidity;BMP_temperature;BMP_pressure;BME280_temperature;BME280_humidity;BME280_pressure;Samples;Min_cycle;Max_cycle;Signal;HPM_P1;HPM_P2
2022/12/24 00:01:24;;;;;;;5.05;1.85;;;12.40;99.90;;;15.10;52.11;97063.03;5042316;28;20328;-60
2022/12/24 00:03:52;;;;;;;3.38;1.83;;;12.40;99.90;;;15.15;52.07;97065.09;5042164;28;20152;-60
2022/12/24 00:06:22;;;;;;;4.78;1.52;;;12.40;99.90;;;15.11;51.77;97064.66;5042403;28;20047;-60
2022/12/24 00:08:51;;;;;;;5.65;1.65;;;12.40;99.90;;;15.13;51.79;97075.19;5042352;28;20045;-60
2022/12/24 00:11:19;;;;;;;4.43;1.73;;;12.40;99.90;;;15.22;51.63;97059.72;5042138;28;20048;-60
2022/12/24 00:13:48;;;;;;;7.18;2.00;;;12.40;99.90;;;15.26;51.63;97061.81;5042157;28;20051;-60
2022/12/24 00:16:16;;;;;;;4.75;1.20;;;12.40;99.90;;;14.87;51.43;97074.13;5042101;28;20055;-60
2022/12/24 00:18:44;;;;;;;7.13;1.80;;;12.30;96.90;;;14.96;51.52;97070.19;5042232;28;20045;-60
2022/12/24 00:21:16;;;;;;;5.70;1.77;;;12.30;99.00;;;15.04;51.70;97074.53;5041954;28;20348;-60
2022/12/24 00:23:44;;;;;;;5.32;1.77;;;12.40;99.90;;;14.74;52.00;97077.56;5040855;28;20351;-60
2022/12/24 00:26:13;;;;;;;4.50;1.58;;;12.30;98.20;;;14.63;51.96;97080.84;5041911;28;20049;-60
2022/12/24 00:28:41;;;;;;;3.63;1.58;;;12.20;98.50;;;14.68;52.24;97066.84;5040825;28;20045;-60
2022/12/24 00:31:13;;;;;;;4.13;1.50;;;12.20;98.80;;;14.84;52.03;97062.97;5041962;28;20103;-60
2022/12/24 00:33:41;;;;;;;6.57;2.38;;;12.20;99.90;;;14.69;52.50;97065.81;5040962;28;20049;-60
2022/12/24 00:36:09;;;;;;;5.47;1.80;;;12.30;99.30;;;14.36;53.10;97059.28;5041065;28;20037;-60
2022/12/24 00:38:38;;;;;;;4.78;1.58;;;12.20;99.30;;;14.55;52.58;97075.63;5042015;28;20033;-60
2022/12/24 00:41:23;;;;;;;3.20;1.65;;;12.20;99.90;;;14.28;53.58;97070.16;5040620;28;20064;-60
2022/12/24 00:43:55;;;;;;;8.57;1.73;;;12.20;99.90;;;14.30;53.31;97064.59;5041751;28;20047;-60
2022/12/24 00:46:25;;;;;;;3.28;2.00;;;12.20;99.10;;;14.50;52.90;97051.28;5034281;28;20045;-60
2022/12/24 00:48:53;;;;;;;6.20;2.17;;;12.10;99.20;;;14.60;52.68;97073.22;5040713;28;20041;-60
2022/12/24 00:51:22;;;;;;;6.18;1.58;;;12.10;99.90;;;14.36;52.92;97075.34;5040713;28;20053;-60
2022/12/24 00:53:50;;;;;;;6.43;2.05;;;12.10;99.30;;;14.73;52.42;97073.25;5041597;28;20049;-60
2022/12/24 00:56:19;;;;;;;4.80;2.08;;;12.20;99.90;;;14.74;52.16;97082.94;5041805;28;20033;-60
2022/12/24 00:58:47;;;;;;;8.18;2.25;;;12.20;98.20;;;14.27;52.90;97095.28;5040746;28;20340;-60
2022/12/24 01:01:16;;;;;;;8.05;2.40;;;12.10;98.20;;;14.73;52.31;97105.41;5040396;28;20389;-60
2022/12/24 01:03:44;;;;;;;3.60;1.80;;;12.20;99.90;;;14.38;52.94;97107.25;5041636;28;20075;-60
2022/12/24 01:06:19;;;;;;;8.05;2.08;;;12.10;98.50;;;14.06;54.72;97116.78;5041524;28;20064;-60
2022/12/24 01:08:50;;;;;;;7.78;1.70;;;12.00;99.90;;;13.37;57.97;97129.81;5041732;28;20075;-60
2022/12/24 01:11:18;;;;;;;9.82;2.35;;;11.70;99.90;;;13.57;57.49;97127.31;5041383;28;20053;-61
2022/12/24 01:13:46;;;;;;;5.55;1.80;;;11.60;99.90;;;13.48;58.59;97133.00;5041401;28;20045;-60
2022/12/24 01:16:18;;;;;;;5.90;2.17;;;11.50;99.90;;;13.45;59.44;97149.41;5040917;28;20225;-60
2022/12/24 01:18:46;;;;;;;6.55;2.40;;;11.30;99.90;;;13.55;59.04;97144.56;5041683;28;20274;-59
2022/12/24 01:21:15;;;;;;;9.77;2.13;;;11.20;99.90;;;12.87;61.35;97157.41;5040359;28;20048;-59
2022/12/24 01:23:43;;;;;;;4.60;1.77;;;11.00;99.90;;;12.46;63.29;97174.75;5040569;28;20051;-59
2022/12/24 01:26:11;;;;;;;6.17;2.07;;;10.80;99.90;;;12.61;64.12;97190.78;5040507;28;20366;-59
2022/12/24 01:28:40;;;;;;;6.87;1.83;;;10.70;99.90;;;12.42;64.32;97178.81;5041570;28;20045;-57
2022/12/24 01:31:14;;;;;;;4.97;1.70;;;10.60;99.90;;;12.92;62.49;97179.06;5041315;28;20052;-57
2022/12/24 01:33:43;;;;;;;10.73;1.67;;;10.60;99.90;;;12.74;62.88;97190.97;5040199;28;20045;-59
2022/12/24 01:36:11;;;;;;;6.47;2.23;;;10.60;99.90;;;12.49;63.65;97190.44;5024205;28;20192;-59
2022/12/24 01:38:40;;;;;;;6.23;1.63;;;10.50;99.90;;;12.42;63.88;97194.84;5041255;28;20049;-59
2022/12/24 01:44:32;;;;;;;6.30;1.90;;;10.50;99.90;;;12.25;63.83;97202.19;5040918;28;20075;-59
2022/12/24 01:47:29;;;;;;;7.20;3.50;;;10.40;99.90;;;12.12;64.04;97197.50;5041670;28;20047;-59
2022/12/24 01:50:02;;;;;;;7.27;1.90;;;10.40;99.90;;;12.77;62.34;97209.28;5044996;28;20051;-59
2022/12/24 01:52:35;;;;;;;4.43;1.70;;;10.50;99.90;;;12.70;62.47;97205.72;5037554;28;20045;-59
2022/12/24 01:55:09;;;;;;;12.00;2.37;;;10.60;99.90;;;12.80;61.72;97216.94;5027552;28;20266;-59
2022/12/24 01:57:44;;;;;;;7.45;2.00;;;10.50;99.90;;;12.63;62.74;97223.47;5043833;28;20044;-60
2022/12/24 02:00:14;;;;;;;9.20;2.33;;;10.50;99.90;;;12.92;61.51;97224.47;5043744;28;20041;-60
2022/12/24 02:02:46;;;;;;;7.80;2.07;;;10.60;99.90;;;12.84;61.70;97222.72;5044760;28;20192;-60
2022/12/24 02:05:47;;;;;;;6.57;2.00;;;10.60;99.90;;;12.33;63.10;97226.13;5043499;28;20056;-60
2022/12/24 02:08:17;;;;;;;7.33;2.50;;;10.50;99.90;;;12.53;62.81;97230.94;5043642;28;20049;-60
2022/12/24 02:10:46;;;;;;;6.93;2.17;;;10.50;99.90;;;12.92;61.75;97224.47;5043316;28;20235;-60
2022/12/24 02:13:19;;;;;;;7.73;3.20;;;10.60;99.90;;;12.83;62.15;97229.06;5042236;28;20076;-60
2022/12/24 02:16:17;;;;;;;12.20;4.03;;;10.50;99.90;;;12.46;62.37;97238.84;5043401;28;20049;-60
2022/12/24 02:19:20;;;;;;;6.87;2.00;;;10.50;99.90;;;12.71;62.10;97217.22;5037703;28;20041;-60
2022/12/24 02:22:05;;;;;;;5.47;2.97;;;10.40;99.90;;;12.65;62.03;97217.97;5038160;28;20037;-60
2022/12/24 02:25:09;;;;;;;5.33;1.87;;;10.40;99.90;;;12.82;61.83;97234.63;5036696;28;20045;-60
2022/12/24 02:27:59;;;;;;;4.60;1.90;;;10.40;99.90;;;12.15;63.41;97241.66;5036927;28;20359;-60
2022/12/24 02:30:37;;;;;;;7.97;2.13;;;10.30;99.90;;;12.47;62.69;97247.69;5035331;28;20253;-60
2022/12/24 02:33:19;;;;;;;6.47;1.97;;;10.30;99.90;;;12.50;62.13;97239.31;5042603;28;20041;-60
2022/12/24 02:36:22;;;;;;;6.27;2.80;;;10.30;99.90;;;12.90;60.99;97219.31;5042351;28;20075;-60
2022/12/24 02:39:11;;;;;;;6.37;2.53;;;10.40;99.90;;;12.92;60.72;97216.47;5042945;28;20049;-60
2022/12/24 02:44:54;;;;;;;7.33;2.17;;;10.20;99.90;;;12.79;61.28;97219.78;5045373;28;20041;-60
2022/12/24 02:47:26;;;;;;;8.27;2.70;;;10.30;99.90;;;12.40;62.41;97227.03;5042732;28;20053;-60
2022/12/24 02:49:54;;;;;;;11.70;2.50;;;10.20;99.90;;;12.68;61.79;97237.13;5042141;28;20055;-60
2022/12/24 02:52:42;;;;;;;10.30;2.60;;;10.20;99.90;;;12.54;62.08;97233.44;5042936;28;20236;-60
2022/12/24 02:55:23;;;;;;;9.70;2.67;;;10.20;99.90;;;12.66;61.81;97230.28;5042767;28;20045;-59
2022/12/24 02:58:32;;;;;;;7.57;2.10;;;10.20;99.90;;;12.53;62.00;97229.09;5043083;28;20045;-59
2022/12/24 03:01:21;;;;;;;7.37;2.70;;;10.30;99.90;;;12.67;61.93;97240.78;5040612;28;20256;-60
2022/12/24 03:04:07;;;;;;;13.80;3.10;;;10.30;99.90;;;12.97;60.64;97238.94;5037197;28;20044;-59
2022/12/24 03:07:03;;;;;;;8.80;2.50;;;10.40;99.90;;;13.00;61.02;97251.09;5036325;28;20052;-60
2022/12/24 03:09:47;;;;;;;12.07;2.80;;;10.50;99.90;;;13.15;60.11;97254.56;5035833;28;20048;-60
2022/12/24 03:12:20;;;;;;;;;;;10.40;99.90;;;13.26;59.98;97249.75;5042361;28;20057;-60
2022/12/24 03:14:48;;;;;;;11.60;2.60;;;10.50;99.90;;;13.31;59.32;97266.91;5035048;28;19923;-60
2022/12/24 03:17:18;;;;;;;10.53;2.30;;;10.50;99.90;;;13.32;59.23;97259.75;5042136;28;20109;-60
2022/12/24 03:19:47;;;;;;;17.37;2.83;;;10.60;99.90;;;13.34;59.48;97276.41;5042149;28;20037;-60
2022/12/24 03:22:17;;;;;;;10.93;3.03;;;10.50;99.90;;;13.23;59.38;97299.06;5042964;28;20048;-60
2022/12/24 03:24:44;;;;;;;8.90;2.33;;;10.50;99.90;;;13.29;59.11;97292.16;5042762;28;20045;-60
2022/12/24 03:27:14;;;;;;;7.80;2.60;;;10.50;99.90;;;13.31;59.30;97290.16;5043061;28;20045;-60
2022/12/24 03:29:42;;;;;;;8.17;2.40;;;10.50;99.90;;;13.35;59.04;97289.56;5042028;28;20048;-60
2022/12/24 03:32:09;;;;;;;9.77;1.93;;;10.50;99.90;;;13.27;59.16;97281.63;5042484;28;20045;-60
2022/12/24 03:34:37;;;;;;;12.20;3.07;;;10.50;99.90;;;13.41;58.98;97296.03;5043068;28;20047;-60
2022/12/24 03:37:05;;;;;;;11.67;2.93;;;10.60;99.90;;;13.45;58.80;97291.94;5042853;28;20255;-60
2022/12/24 03:39:33;;;;;;;8.17;3.20;;;10.60;99.90;;;13.50;58.41;97310.94;5042834;28;20037;-59
2022/12/24 03:42:00;;;;;;;7.43;2.67;;;10.60;99.90;;;13.52;58.36;97314.25;5042720;28;20340;-60
2022/12/24 03:44:28;;;;;;;6.53;2.47;;;10.60;99.90;;;13.46;58.30;97308.84;5042780;28;20047;-60
2022/12/24 03:46:56;;;;;;;8.97;3.17;;;10.60;99.90;;;13.50;57.91;97315.47;5043107;28;20055;-60
2022/12/24 03:49:24;;;;;;;16.10;2.63;;;10.60;99.90;;;13.56;58.06;97314.72;5042496;28;20047;-60
2022/12/24 03:51:52;;;;;;;11.07;2.57;;;10.70;99.90;;;13.59;58.20;97306.34;5042461;28;20045;-60
2022/12/24 03:54:19;;;;;;;9.03;2.73;;;10.70;99.90;;;13.72;57.69;97308.31;5042867;28;20221;-60
2022/12/24 03:56:47;;;;;;;10.30;2.50;;;10.80;99.90;;;13.64;57.98;97311.09;5042586;28;20037;-60
2022/12/24 03:59:15;;;;;;;6.93;2.43;;;10.80;99.90;;;13.61;58.10;97315.00;5042315;28;20348;-60
2022/12/24 04:01:43;;;;;;;9.83;2.70;;;10.80;99.90;;;13.72;58.15;97319.00;5042223;28;20052;-60
2022/12/24 04:04:11;;;;;;;6.70;2.83;;;10.80;99.90;;;13.66;58.46;97322.44;5042662;28;20053;-59
2022/12/24 04:06:38;;;;;;;8.17;2.30;;;10.80;99.90;;;13.47;58.66;97308.63;5042335;28;20503;-59
2022/12/24 04:09:06;;;;;;;8.80;2.60;;;10.60;99.90;;;13.51;58.83;97322.47;5042358;28;20045;-59
2022/12/24 04:11:34;;;;;;;10.50;3.03;;;10.60;99.90;;;13.66;58.23;97330.47;5042077;28;20048;-60
2022/12/24 04:14:02;;;;;;;5.07;2.03;;;10.70;99.90;;;13.72;58.26;97335.06;5042073;28;20047;-59
2022/12/24 04:16:30;;;;;;;8.47;2.53;;;10.70;99.90;;;13.54;58.26;97327.44;5042706;28;20235;-59
2022/12/24 04:18:58;;;;;;;8.30;2.50;;;10.70;99.90;;;13.56;58.44;97325.41;5040838;28;20251;-59
2022/12/24 04:21:26;;;;;;;6.30;2.20;;;10.60;99.90;;;13.59;58.21;97325.06;5042158;28;20129;-60
2022/12/24 04:23:53;;;;;;;6.20;1.90;;;10.70;99.90;;;13.66;58.27;97333.97;5041753;28;20045;-60
2022/12/24 04:26:21;;;;;;;10.50;3.23;;;10.70;99.90;;;13.74;58.16;97327.66;5041299;28;20057;-59
2022/12/24 04:28:49;;;;;;;9.60;4.83;;;10.80;99.90;;;13.77;57.94;97338.81;5042091;28;20037;-60
2022/12/24 04:31:17;;;;;;;6.27;2.80;;;10.80;99.90;;;13.80;58.21;97326.91;5041723;28;20377;-59
2022/12/24 04:33:45;;;;;;;8.30;3.50;;;10.80;99.90;;;13.83;57.96;97329.22;5041730;28;20067;-60
2022/12/24 04:36:16;;;;;;;10.97;2.77;;;10.70;99.90;;;13.88;58.13;97337.53;5040961;28;20047;-60
2022/12/24 04:38:46;;;;;;;12.97;5.27;;;10.80;99.90;;;13.90;57.76;97348.84;5040999;28;20033;-60
2022/12/24 04:41:20;;;;;;;10.43;3.50;;;10.80;99.90;;;13.91;57.67;97347.00;5040309;28;20047;-60
2022/12/24 04:43:54;;;;;;;5.77;2.87;;;10.70;99.90;;;13.91;57.65;97353.19;5041607;28;20347;-60
2022/12/24 04:46:31;;;;;;;9.90;3.87;;;10.70;99.90;;;13.93;57.87;97361.84;5041892;28;20041;-60
2022/12/24 04:48:59;;;;;;;10.70;2.37;;;10.70;99.90;;;13.93;57.71;97356.50;5040950;28;20056;-60
2022/12/24 04:51:28;;;;;;;9.13;2.53;;;10.70;99.90;;;13.92;57.81;97354.84;5040601;28;20053;-60
2022/12/24 04:53:56;;;;;;;5.00;2.43;;;10.70;99.90;;;13.88;57.85;97366.94;5040322;28;20366;-60
2022/12/24 04:56:28;;;;;;;5.80;1.90;;;10.70;99.90;;;13.89;57.81;97365.91;5041605;28;20041;-60
2022/12/24 04:58:59;;;;;;;9.53;2.83;;;10.70;99.90;;;13.86;57.57;97352.94;5041745;28;20064;-60
2022/12/24 05:01:31;;;;;;;10.83;3.07;;;10.70;99.90;;;13.85;57.60;97350.44;5041528;28;20045;-60
2022/12/24 05:04:00;;;;;;;7.67;2.77;;;10.70;99.90;;;13.79;57.68;97342.13;5040420;28;20037;-60
2022/12/24 05:06:30;;;;;;;10.90;2.37;;;10.60;99.90;;;13.79;57.46;97341.31;5041556;28;20227;-60
2022/12/24 05:08:59;;;;;;;7.27;1.70;;;10.60;99.90;;;13.71;57.63;97338.75;5041744;28;20059;-60
2022/12/24 05:11:27;;;;;;;7.80;2.50;;;10.60;99.90;;;13.67;57.51;97330.28;5040562;28;20055;-60
2022/12/24 05:13:55;;;;;;;8.13;2.00;;;10.60;99.90;;;13.64;57.54;97341.34;5038760;28;20041;-60
2022/12/24 05:16:23;;;;;;;11.17;3.00;;;10.60;99.90;;;13.63;57.31;97342.38;5040629;28;20374;-60
2022/12/24 05:18:51;;;;;;;7.30;3.00;;;10.60;99.90;;;13.62;57.36;97347.91;5041571;28;20336;-60
2022/12/24 05:21:22;;;;;;;7.70;2.23;;;10.60;99.90;;;13.64;57.34;97332.50;5041415;28;20048;-60
2022/12/24 05:26:52;;;;;;;6.13;2.40;;;10.60;99.90;;;13.61;57.04;97346.25;5037634;28;20243;-59
2022/12/24 05:29:20;;;;;;;9.33;2.27;;;10.60;99.90;;;13.64;57.00;97343.19;5045954;28;20053;-60
2022/12/24 05:31:48;;;;;;;6.20;2.30;;;10.60;99.90;;;13.64;56.62;97348.56;5043979;28;20343;-60
2022/12/24 05:34:16;;;;;;;9.20;2.20;;;10.60;99.90;;;13.58;56.57;97348.28;5045179;28;20045;-60
2022/12/24 05:36:44;;;;;;;8.10;1.90;;;10.50;99.90;;;13.58;56.62;97342.94;5044295;28;20056;-60
2022/12/24 05:39:17;;;;;;;6.93;1.93;;;10.50;99.90;;;13.57;56.55;97343.97;5043412;28;20266;-60
2022/12/24 05:41:46;;;;;;;9.17;2.63;;;10.50;99.90;;;13.59;56.16;97349.13;5045001;28;20041;-60
2022/12/24 05:44:15;;;;;;;6.77;2.70;;;10.60;99.90;;;13.57;56.28;97341.28;5044510;28;20571;-59
2022/12/24 05:46:43;;;;;;;9.37;2.30;;;10.50;99.90;;;13.52;56.27;97330.31;5044050;28;20344;-60
2022/12/24 05:49:12;;;;;;;5.90;1.97;;;10.50;99.90;;;13.51;56.09;97343.84;5044740;28;20263;-60
2022/12/24 05:51:40;;;;;;;11.50;2.50;;;10.50;99.90;;;13.51;56.16;97343.84;5036135;28;20045;-60
2022/12/24 05:54:10;;;;;;;8.03;3.63;;;10.50;99.90;;;13.45;55.98;97341.94;5044517;28;20049;-60
2022/12/24 05:56:38;;;;;;;10.40;2.53;;;10.40;99.90;;;13.39;55.84;97344.34;5036827;28;20053;-60
2022/12/24 05:59:05;;;;;;;9.63;2.30;;;10.40;99.90;;;13.36;56.03;97349.25;5044687;28;20055;-59
2022/12/24 06:01:34;;;;;;;8.83;2.20;;;10.30;99.90;;;13.34;55.99;97338.72;5044086;28;20065;-60
2022/12/24 06:04:02;;;;;;;8.37;2.40;;;10.30;99.90;;;13.35;56.16;97345.72;5044763;28;20041;-59
2022/12/24 06:06:30;;;;;;;5.23;1.73;;;10.30;99.90;;;13.35;56.14;97350.25;5043529;28;20052;-60
2022/12/24 06:08:58;;;;;;;6.47;2.10;;;10.30;99.90;;;13.21;55.80;97362.59;5044742;28;20374;-60
2022/12/24 06:11:27;;;;;;;10.20;2.87;;;10.20;99.90;;;13.26;56.12;97368.22;5043153;28;20051;-60
2022/12/24 06:13:55;;;;;;;11.67;3.20;;;10.20;99.90;;;13.29;56.10;97370.50;5043149;28;20103;-60
2022/12/24 06:16:24;;;;;;;8.20;2.57;;;10.20;99.90;;;13.31;55.86;97359.66;5044562;28;20131;-60
2022/12/24 06:18:53;;;;;;;5.50;2.70;;;10.30;99.90;;;13.29;55.80;97372.34;5026993;28;20048;-60
2022/12/24 06:21:21;;;;;;;8.13;3.07;;;10.20;99.90;;;13.23;55.58;97373.91;5043899;28;20045;-60
2022/12/24 06:23:49;;;;;;;11.73;3.30;;;10.20;99.90;;;13.29;55.68;97378.53;5043796;28;20041;-60
2022/12/24 06:26:21;;;;;;;11.07;2.97;;;10.30;99.90;;;13.30;55.55;97377.56;5044334;28;20253;-60
2022/12/24 06:28:50;;;;;;;7.70;2.67;;;10.30;99.90;;;13.28;55.22;97384.91;5044624;28;20446;-60
2022/12/24 06:31:21;;;;;;;8.83;2.57;;;10.30;99.90;;;13.27;55.35;97380.56;5043787;28;20063;-60
2022/12/24 06:33:50;;;;;;;8.70;3.23;;;10.30;99.90;;;13.28;55.50;97384.03;5041573;28;20188;-60
2022/12/24 06:36:22;;;;;;;8.27;4.03;;;10.30;99.90;;;13.11;55.46;97391.44;5043003;28;20063;-60
2022/12/24 06:38:52;;;;;;;5.80;2.43;;;10.20;99.90;;;13.23;55.33;97403.31;5043089;28;20038;-60
2022/12/24 06:41:20;;;;;;;7.00;3.10;;;10.20;99.90;;;13.27;55.11;97404.63;5042690;28;20053;-60
2022/12/24 06:43:51;;;;;;;12.77;2.97;;;10.20;99.90;;;13.28;55.49;97410.78;5042720;28;20366;-60
2022/12/24 06:46:20;;;;;;;7.13;2.60;;;10.20;99.90;;;13.28;55.14;97416.13;5042933;28;20260;-60
2022/12/24 06:48:48;;;;;;;10.80;3.70;;;10.20;99.90;;;13.28;55.11;97416.13;5042664;28;20352;-60
2022/12/24 06:51:18;;;;;;;6.27;2.23;;;10.20;99.90;;;13.28;55.16;97424.16;5043522;28;20348;-59
2022/12/24 06:53:49;;;;;;;8.63;2.10;;;10.20;99.90;;;13.26;55.19;97427.03;5043526;28;20055;-59
2022/12/24 06:56:19;;;;;;;9.20;3.23;;;10.20;99.90;;;13.24;54.99;97436.22;5043695;28;20049;-60
2022/12/24 06:58:47;;;;;;;9.43;3.93;;;10.20;99.90;;;13.26;54.93;97431.53;5041829;28;20247;-60
2022/12/24 07:01:17;;;;;;;6.30;2.17;;;10.20;99.90;;;13.21;55.12;97445.44;5042517;28;20244;-60
2022/12/24 07:03:46;;;;;;;6.20;2.50;;;10.20;99.90;;;13.21;55.25;97437.44;5042099;28;20037;-60
2022/12/24 07:06:24;;;;;;;11.10;2.37;;;10.20;99.90;;;13.23;54.80;97418.53;5042472;28;20045;-60
2022/12/24 07:08:52;;;;;;;9.50;2.60;;;10.30;99.90;;;13.27;54.78;97427.84;5042494;28;20064;-60
2022/12/24 07:11:21;;;;;;;9.90;2.90;;;10.30;99.90;;;13.26;54.99;97436.88;5042044;28;20055;-60
2022/12/24 07:13:49;;;;;;;8.63;2.17;;;10.30;99.90;;;13.27;54.69;97438.53;5042032;28;20046;-59
2022/12/24 07:16:17;;;;;;;10.40;2.33;;;10.30;99.90;;;13.26;54.56;97442.22;5042220;28;20397;-60
2022/12/24 07:18:45;;;;;;;7.93;2.93;;;10.30;99.90;;;13.24;54.73;97437.06;5043324;28;20248;-60
2022/12/24 07:21:13;;;;;;;8.23;2.43;;;10.30;99.90;;;13.23;54.84;97445.28;5043258;28;20045;-60
2022/12/24 07:23:41;;;;;;;5.07;2.23;;;10.20;99.90;;;13.25;54.63;97449.41;5041867;28;20045;-60
2022/12/24 07:26:10;;;;;;;8.03;2.87;;;10.20;99.90;;;13.25;54.96;97456.59;5041957;28;20368;-60
2022/12/24 07:28:37;;;;;;;10.80;3.07;;;10.20;99.90;;;13.23;54.55;97458.63;5043080;28;20067;-59
2022/12/24 07:31:05;;;;;;;10.37;3.93;;;10.20;99.90;;;13.18;54.84;97470.72;5043056;28;20051;-60
2022/12/24 07:33:33;;;;;;;5.57;2.10;;;10.10;99.90;;;13.22;54.73;97470.31;5042940;28;20056;-60
2022/12/24 07:36:09;;;;;;;9.63;2.83;;;10.10;99.90;;;13.23;54.92;97472.00;5042028;28;20056;-59
2022/12/24 07:38:37;;;;;;;14.37;3.63;;;10.10;99.90;;;13.24;54.67;97474.50;5041656;28;20049;-60
2022/12/24 07:41:05;;;;;;;5.93;2.43;;;10.20;99.90;;;13.13;55.15;97472.25;5041499;28;20049;-59
2022/12/24 07:43:33;;;;;;;11.13;3.63;;;10.10;99.90;;;13.11;55.00;97474.28;5042598;28;20067;-60
2022/12/24 07:46:01;;;;;;;11.90;2.50;;;10.10;99.90;;;13.15;54.92;97483.59;5042487;28;20071;-60
2022/12/24 07:48:30;;;;;;;10.80;4.17;;;10.10;99.90;;;13.16;54.93;97478.09;5041556;28;20052;-59
2022/12/24 07:50:59;;;;;;;10.93;2.37;;;10.10;99.90;;;13.17;54.94;97481.56;5042502;28;20056;-60
2022/12/24 07:53:28;;;;;;;10.20;2.20;;;10.10;99.90;;;13.17;55.00;97484.25;5042374;28;20045;-60
2022/12/24 07:55:57;;;;;;;8.20;2.13;;;10.10;99.90;;;13.16;55.10;97483.44;5041636;28;20043;-60
2022/12/24 07:58:25;;;;;;;15.03;3.10;;;10.10;99.90;;;13.14;54.78;97481.94;5042549;28;20049;-60
2022/12/24 08:00:58;;;;;;;10.60;2.63;;;10.20;99.90;;;13.17;54.86;97476.22;5041267;28;20045;-60
2022/12/24 08:03:27;;;;;;;8.63;2.20;;;10.20;99.90;;;13.19;54.94;97483.03;5041071;28;20045;-60
2022/12/24 08:05:55;;;;;;;10.50;3.57;;;10.20;99.90;;;13.09;54.99;97493.16;5042394;28;20233;-59
2022/12/24 08:08:23;;;;;;;12.60;2.67;;;10.10;99.90;;;13.15;55.19;97492.44;5042451;28;20348;-60
2022/12/24 08:10:51;;;;;;;7.10;2.60;;;10.20;99.90;;;13.14;55.13;97495.28;5041350;28;20037;-60
2022/12/24 08:13:19;;;;;;;9.00;3.30;;;10.20;99.90;;;13.13;54.83;97494.47;5039488;28;20053;-60
2022/12/24 08:15:47;;;;;;;8.20;3.13;;;10.20;99.90;;;13.20;54.76;97505.25;5033822;28;20030;-59
2022/12/24 08:18:15;;;;;;;5.97;2.40;;;10.20;99.90;;;13.14;54.80;97512.19;5042423;28;20049;-60
2022/12/24 08:20:43;;;;;;;10.33;3.57;;;10.20;99.90;;;13.22;55.04;97511.25;5041825;28;20045;-60
2022/12/24 08:23:10;;;;;;;5.10;2.43;;;10.30;99.90;;;13.22;54.84;97505.06;5040807;28;20052;-60
2022/12/24 08:25:46;;;;;;;10.87;3.23;;;10.30;99.90;;;13.28;54.77;97515.91;5041996;28;20256;-60
2022/12/24 08:28:18;;;;;;;14.93;3.80;;;10.30;99.90;;;13.31;54.85;97510.19;5042283;28;20049;-60
2022/12/24 08:30:49;;;;;;;10.80;2.73;;;10.30;99.90;;;13.35;55.10;97516.00;5041066;28;20044;-60
2022/12/24 08:33:17;;;;;;;6.47;3.00;;;10.40;99.90;;;13.37;54.59;97516.66;5040874;28;20049;-62
2022/12/24 08:35:50;;;;;;;12.03;3.33;;;10.40;99.90;;;13.38;54.55;97529.84;5041976;28;20051;-62
2022/12/24 08:38:18;;;;;;;9.03;3.47;;;10.30;99.90;;;13.40;54.82;97524.34;5042199;28;20056;-62
2022/12/24 08:40:48;;;;;;;7.90;2.70;;;10.40;99.90;;;13.39;54.98;97531.50;5040265;28;20037;-62
2022/12/24 08:43:18;;;;;;;7.40;2.93;;;10.40;99.90;;;13.42;54.49;97538.34;5041777;28;20048;-62
2022/12/24 08:45:48;;;;;;;6.27;3.00;;;10.40;99.90;;;13.39;54.81;97539.53;5041510;28;20041;-62
2022/12/24 08:48:16;;;;;;;11.93;2.50;;;10.30;99.90;;;13.41;54.58;97541.19;5040933;28;20071;-62
2022/12/24 08:50:44;;;;;;;8.70;2.60;;;10.30;99.90;;;13.38;54.53;97537.88;5041803;28;20051;-62
2022/12/24 08:53:13;;;;;;;6.20;2.47;;;10.30;99.90;;;13.39;54.65;97544.88;5040039;28;20259;-62
2022/12/24 08:55:41;;;;;;;10.83;3.30;;;10.40;99.90;;;13.41;54.34;97547.38;5041643;28;20063;-62
2022/12/24 08:58:08;;;;;;;9.13;2.73;;;10.30;99.90;;;13.41;54.51;97536.66;5042740;28;20059;-62
2022/12/24 09:00:37;;;;;;;10.50;2.90;;;10.40;99.90;;;13.39;54.52;97542.19;5045069;28;20052;-62
2022/12/24 09:03:05;;;;;;;13.77;3.33;;;10.30;99.90;;;13.37;54.72;97544.22;5045604;28;20045;-62
2022/12/24 09:05:33;;;;;;;7.10;2.47;;;10.30;99.90;;;13.37;54.63;97544.22;5045911;28;20051;-60
2022/12/24 09:08:01;;;;;;;8.17;2.90;;;10.30;99.90;;;13.38;54.69;97553.91;5045532;28;20367;-60
2022/12/24 09:10:29;;;;;;;8.47;4.00;;;10.30;99.90;;;13.39;54.30;97552.88;5045680;28;20053;-60
2022/12/24 09:12:56;;;;;;;10.33;2.30;;;10.30;99.90;;;13.37;54.40;97560.25;5045162;28;20041;-60
2022/12/24 09:15:24;;;;;;;7.23;2.27;;;10.30;99.90;;;13.38;54.46;97561.94;5045769;28;20258;-60
2022/12/24 09:17:52;;;;;;;7.50;2.27;;;10.30;99.90;;;13.40;54.21;97572.47;5045114;28;20047;-60
2022/12/24 09:20:20;;;;;;;12.27;2.70;;;10.30;99.90;;;13.41;54.01;97579.47;5045333;28;20053;-60
2022/12/24 09:22:47;;;;;;;9.17;3.50;;;10.40;99.90;;;13.46;54.26;97573.59;5045155;28;20037;-60
2022/12/24 09:25:15;;;;;;;12.53;2.60;;;10.50;99.90;;;13.37;54.35;97578.97;5045607;28;20046;-60
2022/12/24 09:27:43;;;;;;;9.77;2.57;;;10.40;99.90;;;13.44;54.01;97578.28;5045785;28;20100;-60
2022/12/24 09:30:12;;;;;;;7.50;2.40;;;10.50;99.90;;;13.52;54.13;97588.91;5045337;28;20052;-60
2022/12/24 09:32:39;;;;;;;9.80;2.10;;;10.60;99.90;;;13.57;53.73;97595.38;5044899;28;20053;-60
2022/12/24 09:35:08;;;;;;;7.57;2.50;;;10.60;99.90;;;13.61;53.76;97595.00;5045408;28;20045;-60
2022/12/24 09:37:36;;;;;;;16.27;2.97;;;10.70;99.90;;;13.66;53.91;97596.09;5045058;28;20049;-60
2022/12/24 09:40:05;;;;;;;5.30;3.17;;;10.80;99.90;;;13.66;53.58;97596.09;5045216;28;20045;-60
2022/12/24 09:42:40;;;;;;;10.43;3.40;;;10.80;99.90;;;13.70;53.67;97608.09;5043601;28;20045;-60
2022/12/24 09:45:33;;;;;;;6.47;3.07;;;10.80;99.90;;;13.76;53.92;97598.53;5044138;28;20045;-60
2022/12/24 09:48:14;;;;;;;10.35;3.20;;;11.00;99.90;;;13.89;53.77;97603.25;5037616;28;20281;-60
2022/12/24 09:51:15;;;;;;;8.27;2.97;;;11.00;99.90;;;13.96;54.01;97604.19;5043636;28;20045;-60
2022/12/24 09:53:56;;;;;;;7.93;2.20;;;11.10;99.90;;;14.06;53.69;97602.06;5044636;28;20355;-60
2022/12/24 09:56:30;;;;;;;7.10;2.37;;;11.20;99.90;;;13.88;54.32;97601.59;5043873;28;20053;-60
2022/12/24 09:59:03;;;;;;;7.90;2.75;;;11.10;99.90;;;14.01;54.13;97601.78;5043913;28;20041;-60
2022/12/24 10:01:33;;;;;;;17.83;4.93;;;11.20;99.90;;;14.00;54.25;97605.47;5044692;28;20037;-60
2022/12/24 10:04:14;;;;;;;10.73;2.70;;;11.20;99.90;;;14.12;54.03;97595.16;5044522;28;20057;-60
2022/12/24 10:07:30;;;;;;;10.20;2.23;;;11.20;99.90;;;14.16;54.25;97596.44;5043628;28;20051;-62
2022/12/24 10:10:19;;;;;;;7.40;3.40;;;11.30;99.90;;;14.29;53.84;97593.13;5041042;28;20057;-62
2022/12/24 10:13:08;;;;;;;9.83;2.57;;;11.40;99.90;;;14.23;54.35;97609.91;5043225;28;20053;-62
2022/12/24 10:16:11;;;;;;;14.40;2.53;;;11.40;99.90;;;14.38;54.40;97594.66;5044407;28;20049;-62
2022/12/24 10:19:03;;;;;;;11.30;2.17;;;11.60;99.90;;;14.57;54.01;97604.00;5043851;28;20371;-62
2022/12/24 10:21:32;;;;;;;9.63;2.23;;;11.70;99.90;;;14.62;53.58;97608.78;5043261;28;20037;-62
2022/12/24 10:24:13;;;;;;;7.13;2.80;;;11.70;99.90;;;14.32;53.74;97616.81;5044191;28;20049;-63
2022/12/24 10:26:55;;;;;;;12.73;5.30;;;11.60;99.90;;;14.34;54.43;97625.50;5043901;28;20047;-62
2022/12/24 10:29:33;;;;;;;7.83;3.07;;;11.40;99.90;;;14.25;54.90;97630.13;5043361;28;20041;-63
2022/12/24 10:32:07;;;;;;;10.27;3.50;;;11.30;99.90;;;14.36;54.56;97635.03;5035923;28;20275;-62
2022/12/24 10:34:42;;;;;;;7.65;2.90;;;11.40;99.90;;;14.26;54.78;97634.47;5044190;28;20060;-62
2022/12/24 10:37:19;;;;;;;11.65;4.50;;;11.30;99.90;;;14.16;55.27;97629.38;5043056;28;20053;-62
2022/12/24 10:39:46;;;;;;;7.60;2.83;;;11.20;99.90;;;14.21;54.99;97633.34;5044064;28;20049;-62
2022/12/24 10:42:15;;;;;;;8.07;3.10;;;11.00;99.90;;;14.06;55.17;97620.81;5043759;28;20255;-62
2022/12/24 10:44:51;;;;;;;11.70;3.97;;;11.00;99.90;;;14.12;55.32;97625.41;5042984;28;20052;-62
2022/12/24 10:47:21;;;;;;;9.43;3.07;;;11.00;99.90;;;14.11;55.30;97629.13;5044140;28;20355;-62